sensor_id;sensor_type;location;lat;lon;timestamp;pressure;altitude;pressure_sealevel;temperature;humidity
79678;BME280;69145;45.544;10.214;2023-05-08T00:01:49;100138.75;;;19.65;73.99
79678;BME280;69145;45.544;10.214;2023-05-08T00:04:14;100132.94;;;19.63;74.22
79678;BME280;69145;45.544;10.214;2023-05-08T00:06:39;100129.25;;;19.64;74.00
79678;BME280;69145;45.544;10.214;2023-05-08T00:09:05;100125.28;;;19.61;73.68
79678;BME280;69145;45.544;10.214;2023-05-08T00:11:30;100135.56;;;19.63;73.67
79678;BME280;69145;45.544;10.214;2023-05-08T00:13:56;100139.31;;;19.67;74.34
79678;BME280;69145;45.544;10.214;2023-05-08T00:16:21;100141.03;;;19.61;74.91
79678;BME280;69145;45.544;10.214;2023-05-08T00:18:50;100135.13;;;19.54;75.10
79678;BME280;69145;45.544;10.214;2023-05-08T00:21:23;100138.09;;;19.58;74.65
79678;BME280;69145;45.544;10.214;2023-05-08T00:23:48;100154.41;;;19.60;74.38
79678;BME280;69145;45.544;10.214;2023-05-08T00:26:14;100152.47;;;19.55;74.14
79678;BME280;69145;45.544;10.214;2023-05-08T00:28:39;100148.59;;;19.58;74.80
79678;BME280;69145;45.544;10.214;2023-05-08T00:31:04;100146.97;;;19.57;73.34
79678;BME280;69145;45.544;10.214;2023-05-08T00:33:30;100138.19;;;19.63;73.57
79678;BME280;69145;45.544;10.214;2023-05-08T00:36:02;100129.16;;;19.59;73.55
79678;BME280;69145;45.544;10.214;2023-05-08T00:38:32;100126.38;;;19.49;72.99
79678;BME280;69145;45.544;10.214;2023-05-08T00:41:02;100132.28;;;19.56;73.55
79678;BME280;69145;45.544;10.214;2023-05-08T00:43:28;100143.09;;;19.59;73.18
79678;BME280;69145;45.544;10.214;2023-05-08T00:45:58;100126.13;;;19.50;73.49
79678;BME280;69145;45.544;10.214;2023-05-08T00:48:24;100134.91;;;19.56;72.88
79678;BME280;69145;45.544;10.214;2023-05-08T00:50:53;100137.91;;;19.48;72.92
79678;BME280;69145;45.544;10.214;2023-05-08T00:53:21;100144.72;;;19.49;74.22
79678;BME280;69145;45.544;10.214;2023-05-08T00:55:50;100153.50;;;19.54;73.92
79678;BME280;69145;45.544;10.214;2023-05-08T00:58:17;100151.78;;;19.60;73.85
79678;BME280;69145;45.544;10.214;2023-05-08T01:00:43;100161.88;;;19.68;73.81
79678;BME280;69145;45.544;10.214;2023-05-08T01:03:13;100159.66;;;19.60;74.39
79678;BME280;69145;45.544;10.214;2023-05-08T01:05:39;100167.44;;;19.55;74.27
79678;BME280;69145;45.544;10.214;2023-05-08T01:08:05;100173.75;;;19.42;74.67
79678;BME280;69145;45.544;10.214;2023-05-08T01:10:41;100169.88;;;19.33;75.18
79678;BME280;69145;45.544;10.214;2023-05-08T01:13:35;100174.06;;;19.46;75.76
79678;BME280;69145;45.544;10.214;2023-05-08T01:19:40;100166.66;;;19.43;75.17
79678;BME280;69145;45.544;10.214;2023-05-08T01:22:25;100171.13;;;19.42;75.04
79678;BME280;69145;45.544;10.214;2023-05-08T01:28:16;100174.50;;;19.43;74.50
79678;BME280;69145;45.544;10.214;2023-05-08T01:36:28;100182.38;;;19.43;75.31
79678;BME280;69145;45.544;10.214;2023-05-08T01:39:17;100183.44;;;19.42;76.86
79678;BME280;69145;45.544;10.214;2023-05-08T01:41:59;100167.69;;;19.42;76.93
79678;BME280;69145;45.544;10.214;2023-05-08T01:44:50;100168.81;;;19.46;76.69
79678;BME280;69145;45.544;10.214;2023-05-08T01:47:19;100160.38;;;19.44;76.87
79678;BME280;69145;45.544;10.214;2023-05-08T01:49:48;100162.53;;;19.47;76.70
79678;BME280;69145;45.544;10.214;2023-05-08T01:52:17;100167.13;;;19.40;76.30
79678;BME280;69145;45.544;10.214;2023-05-08T01:54:55;100163.69;;;19.39;76.14
79678;BME280;69145;45.544;10.214;2023-05-08T01:57:23;100163.34;;;19.35;76.70
79678;BME280;69145;45.544;10.214;2023-05-08T01:59:51;100154.91;;;19.33;77.02
79678;BME280;69145;45.544;10.214;2023-05-08T02:02:19;100159.78;;;19.30;76.86
79678;BME280;69145;45.544;10.214;2023-05-08T02:04:45;100159.25;;;19.28;76.79
79678;BME280;69145;45.544;10.214;2023-05-08T02:07:11;100157.66;;;19.27;76.88
79678;BME280;69145;45.544;10.214;2023-05-08T02:09:38;100159.47;;;19.26;77.16
79678;BME280;69145;45.544;10.214;2023-05-08T02:12:06;100152.41;;;19.27;77.33
79678;BME280;69145;45.544;10.214;2023-05-08T02:14:32;100153.88;;;19.23;77.87
79678;BME280;69145;45.544;10.214;2023-05-08T02:17:00;100154.56;;;19.30;77.82
79678;BME280;69145;45.544;10.214;2023-05-08T02:19:28;100154.69;;;19.23;77.69
79678;BME280;69145;45.544;10.214;2023-05-08T02:21:55;100158.22;;;19.29;77.69
79678;BME280;69145;45.544;10.214;2023-05-08T02:24:23;100147.84;;;19.22;77.70
79678;BME280;69145;45.544;10.214;2023-05-08T02:26:51;100146.16;;;19.16;78.25
79678;BME280;69145;45.544;10.214;2023-05-08T02:29:20;100149.09;;;19.20;78.34
79678;BME280;69145;45.544;10.214;2023-05-08T02:31:47;100154.59;;;19.18;77.74
79678;BME280;69145;45.544;10.214;2023-05-08T02:34:14;100163.03;;;19.20;78.56
79678;BME280;69145;45.544;10.214;2023-05-08T02:36:41;100158.03;;;19.19;78.57
79678;BME280;69145;45.544;10.214;2023-05-08T02:39:10;100172.03;;;19.24;78.98
79678;BME280;69145;45.544;10.214;2023-05-08T02:41:39;100179.00;;;19.30;78.62
79678;BME280;69145;45.544;10.214;2023-05-08T02:44:05;100176.16;;;19.20;78.59
79678;BME280;69145;45.544;10.214;2023-05-08T02:46:56;100186.75;;;19.25;79.17
79678;BME280;69145;45.544;10.214;2023-05-08T02:49:40;100191.19;;;19.25;78.63
79678;BME280;69145;45.544;10.214;2023-05-08T02:52:12;100195.41;;;19.26;78.03
79678;BME280;69145;45.544;10.214;2023-05-08T02:55:27;100196.31;;;19.20;78.56
79678;BME280;69145;45.544;10.214;2023-05-08T02:57:40;100193.56;;;19.26;77.68
79678;BME280;69145;45.544;10.214;2023-05-08T03:00:11;100195.97;;;19.16;77.87
79678;BME280;69145;45.544;10.214;2023-05-08T03:02:54;100198.75;;;19.10;77.34
79678;BME280;69145;45.544;10.214;2023-05-08T03:05:28;100193.72;;;19.08;77.49
79678;BME280;69145;45.544;10.214;2023-05-08T03:07:56;100194.50;;;19.09;77.45
79678;BME280;69145;45.544;10.214;2023-05-08T03:10:28;100210.47;;;19.19;77.36
79678;BME280;69145;45.544;10.214;2023-05-08T03:13:02;100214.91;;;19.18;77.06
79678;BME280;69145;45.544;10.214;2023-05-08T03:18:01;100215.97;;;19.17;77.11
79678;BME280;69145;45.544;10.214;2023-05-08T03:20:32;100219.59;;;19.28;77.44
79678;BME280;69145;45.544;10.214;2023-05-08T03:23:01;100224.75;;;19.34;77.68
79678;BME280;69145;45.544;10.214;2023-05-08T03:25:28;100231.34;;;19.37;77.78
79678;BME280;69145;45.544;10.214;2023-05-08T03:27:55;100238.78;;;19.40;77.14
79678;BME280;69145;45.544;10.214;2023-05-08T03:30:23;100239.34;;;19.42;76.84
79678;BME280;69145;45.544;10.214;2023-05-08T03:32:50;100242.97;;;19.41;76.95
79678;BME280;69145;45.544;10.214;2023-05-08T03:35:17;100240.81;;;19.38;77.38
79678;BME280;69145;45.544;10.214;2023-05-08T03:37:43;100241.63;;;19.15;77.41
79678;BME280;69145;45.544;10.214;2023-05-08T03:40:09;100246.25;;;19.25;77.27
79678;BME280;69145;45.544;10.214;2023-05-08T03:42:35;100253.84;;;19.33;76.35
79678;BME280;69145;45.544;10.214;2023-05-08T03:45:02;100250.03;;;19.41;76.09
79678;BME280;69145;45.544;10.214;2023-05-08T03:47:28;100252.66;;;19.29;76.34
79678;BME280;69145;45.544;10.214;2023-05-08T03:49:54;100247.97;;;19.19;77.27
79678;BME280;69145;45.544;10.214;2023-05-08T03:52:19;100253.56;;;19.23;77.02
79678;BME280;69145;45.544;10.214;2023-05-08T03:54:45;100252.56;;;19.35;76.54
79678;BME280;69145;45.544;10.214;2023-05-08T03:57:11;100249.03;;;19.42;76.41
79678;BME280;69145;45.544;10.214;2023-05-08T03:59:46;100250.94;;;19.46;76.54
79678;BME280;69145;45.544;10.214;2023-05-08T04:05:31;100250.75;;;19.48;76.86
79678;BME280;69145;45.544;10.214;2023-05-08T04:08:16;100249.13;;;19.47;76.88
79678;BME280;69145;45.544;10.214;2023-05-08T04:11:13;100258.03;;;19.46;77.21
79678;BME280;69145;45.544;10.214;2023-05-08T04:13:53;100259.84;;;19.22;77.56
79678;BME280;69145;45.544;10.214;2023-05-08T04:16:26;100267.69;;;19.10;79.01
79678;BME280;69145;45.544;10.214;2023-05-08T04:19:08;100255.50;;;19.16;79.07
79678;BME280;69145;45.544;10.214;2023-05-08T04:21:35;100260.91;;;19.21;78.52
79678;BME280;69145;45.544;10.214;2023-05-08T04:24:03;100257.47;;;19.20;78.37
79678;BME280;69145;45.544;10.214;2023-05-08T04:26:31;100266.91;;;19.21;78.44
79678;BME280;69145;45.544;10.214;2023-05-08T04:28:58;100268.84;;;19.14;77.94
79678;BME280;69145;45.544;10.214;2023-05-08T04:31:24;100268.88;;;19.03;78.24
79678;BME280;69145;45.544;10.214;2023-05-08T04:33:50;100275.34;;;19.00;78.79
79678;BME280;69145;45.544;10.214;2023-05-08T04:36:16;100269.78;;;19.08;78.43
79678;BME280;69145;45.544;10.214;2023-05-08T04:38:42;100275.56;;;19.10;78.70
79678;BME280;69145;45.544;10.214;2023-05-08T04:41:07;100266.91;;;19.21;78.08
79678;BME280;69145;45.544;10.214;2023-05-08T04:43:34;100274.00;;;19.21;78.05
79678;BME280;69145;45.544;10.214;2023-05-08T04:45:59;100266.47;;;19.24;77.90
79678;BME280;69145;45.544;10.214;2023-05-08T04:48:24;100268.28;;;19.12;77.47
79678;BME280;69145;45.544;10.214;2023-05-08T04:50:50;100267.38;;;18.95;77.92
79678;BME280;69145;45.544;10.214;2023-05-08T04:53:15;100265.53;;;19.07;78.67
79678;BME280;69145;45.544;10.214;2023-05-08T04:55:40;100262.81;;;19.14;78.57
79678;BME280;69145;45.544;10.214;2023-05-08T04:58:06;100265.00;;;19.17;78.28
79678;BME280;69145;45.544;10.214;2023-05-08T05:00:33;100265.88;;;19.11;78.22
79678;BME280;69145;45.544;10.214;2023-05-08T05:02:58;100267.72;;;19.22;78.11
79678;BME280;69145;45.544;10.214;2023-05-08T05:05:23;100258.81;;;19.23;78.03
79678;BME280;69145;45.544;10.214;2023-05-08T05:07:49;100268.06;;;19.25;77.64
79678;BME280;69145;45.544;10.214;2023-05-08T05:10:14;100265.09;;;19.10;78.37
79678;BME280;69145;45.544;10.214;2023-05-08T05:12:40;100266.00;;;19.27;77.64
79678;BME280;69145;45.544;10.214;2023-05-08T05:15:05;100278.81;;;19.35;77.77
79678;BME280;69145;45.544;10.214;2023-05-08T05:17:31;100274.91;;;19.15;77.51
79678;BME280;69145;45.544;10.214;2023-05-08T05:19:57;100283.00;;;19.13;77.91
79678;BME280;69145;45.544;10.214;2023-05-08T05:22:22;100279.13;;;19.16;77.25
79678;BME280;69145;45.544;10.214;2023-05-08T05:24:48;100288.47;;;19.00;77.62
79678;BME280;69145;45.544;10.214;2023-05-08T05:27:13;100284.59;;;19.26;77.19
79678;BME280;69145;45.544;10.214;2023-05-08T05:29:38;100286.66;;;19.35;76.69
79678;BME280;69145;45.544;10.214;2023-05-08T05:32:04;100293.84;;;19.28;77.06
79678;BME280;69145;45.544;10.214;2023-05-08T05:34:31;100292.38;;;19.21;77.34
79678;BME280;69145;45.544;10.214;2023-05-08T05:36:56;100287.47;;;19.36;77.06
79678;BME280;69145;45.544;10.214;2023-05-08T05:39:22;100291.59;;;19.44;76.98
79678;BME280;69145;45.544;10.214;2023-05-08T05:41:47;100288.03;;;19.50;76.92
79678;BME280;69145;45.544;10.214;2023-05-08T05:44:12;100291.13;;;19.47;77.23
79678;BME280;69145;45.544;10.214;2023-05-08T05:46:37;100298.09;;;19.41;77.05
79678;BME280;69145;45.544;10.214;2023-05-08T05:49:03;100294.53;;;19.35;77.26
79678;BME280;69145;45.544;10.214;2023-05-08T05:51:28;100296.59;;;19.33;77.19
79678;BME280;69145;45.544;10.214;2023-05-08T05:53:54;100296.22;;;19.30;77.52
79678;BME280;69145;45.544;10.214;2023-05-08T05:56:19;100299.53;;;19.25;77.57
79678;BME280;69145;45.544;10.214;2023-05-08T05:58:45;100294.19;;;19.32;77.55
79678;BME280;69145;45.544;10.214;2023-05-08T06:01:11;100290.56;;;19.33;77.16
79678;BME280;69145;45.544;10.214;2023-05-08T06:03:36;100292.81;;;19.29;77.60
79678;BME280;69145;45.544;10.214;2023-05-08T06:06:02;100297.25;;;19.29;77.66
79678;BME280;69145;45.544;10.214;2023-05-08T06:08:28;100300.44;;;19.19;78.16
79678;BME280;69145;45.544;10.214;2023-05-08T06:10:53;100301.41;;;19.37;77.36
79678;BME280;69145;45.544;10.214;2023-05-08T06:13:19;100294.78;;;19.46;77.35
79678;BME280;69145;45.544;10.214;2023-05-08T06:15:56;100294.31;;;19.49;76.79
79678;BME280;69145;45.544;10.214;2023-05-08T06:18:24;100296.03;;;19.55;76.67
79678;BME280;69145;45.544;10.214;2023-05-08T06:20:59;100300.34;;;19.61;76.45
79678;BME280;69145;45.544;10.214;2023-05-08T06:23:25;100311.66;;;19.61;76.88
79678;BME280;69145;45.544;10.214;2023-05-08T06:25:51;100306.06;;;19.58;76.96
79678;BME280;69145;45.544;10.214;2023-05-08T06:28:16;100310.28;;;19.59;76.83
79678;BME280;69145;45.544;10.214;2023-05-08T06:30:42;100311.53;;;19.45;76.48
79678;BME280;69145;45.544;10.214;2023-05-08T06:33:08;100311.66;;;19.50;77.20
79678;BME280;69145;45.544;10.214;2023-05-08T06:35:33;100313.72;;;19.48;77.08
79678;BME280;69145;45.544;10.214;2023-05-08T06:37:58;100315.31;;;19.49;77.44
79678;BME280;69145;45.544;10.214;2023-05-08T06:40:24;100311.66;;;19.50;77.13
79678;BME280;69145;45.544;10.214;2023-05-08T06:42:50;100314.28;;;19.50;76.71
79678;BME280;69145;45.544;10.214;2023-05-08T06:45:15;100319.66;;;19.31;77.62
79678;BME280;69145;45.544;10.214;2023-05-08T06:47:41;100325.00;;;19.48;77.32
79678;BME280;69145;45.544;10.214;2023-05-08T06:50:06;100322.50;;;19.53;76.53
79678;BME280;69145;45.544;10.214;2023-05-08T06:52:32;100326.72;;;19.54;76.49
79678;BME280;69145;45.544;10.214;2023-05-08T06:54:57;100319.28;;;19.63;76.59
79678;BME280;69145;45.544;10.214;2023-05-08T06:57:22;100325.94;;;19.65;76.97
79678;BME280;69145;45.544;10.214;2023-05-08T06:59:51;100330.13;;;19.66;76.53
79678;BME280;69145;45.544;10.214;2023-05-08T07:02:16;100331.72;;;19.67;76.48
79678;BME280;69145;45.544;10.214;2023-05-08T07:04:42;100330.47;;;19.70;77.03
79678;BME280;69145;45.544;10.214;2023-05-08T07:07:08;100335.72;;;19.70;76.29
79678;BME280;69145;45.544;10.214;2023-05-08T07:09:33;100334.91;;;19.69;76.33
79678;BME280;69145;45.544;10.214;2023-05-08T07:11:58;100336.19;;;19.67;76.54
79678;BME280;69145;45.544;10.214;2023-05-08T07:14:25;100324.41;;;19.69;76.43
79678;BME280;69145;45.544;10.214;2023-05-08T07:16:51;100333.66;;;19.72;76.54
79678;BME280;69145;45.544;10.214;2023-05-08T07:19:17;100335.25;;;19.73;76.23
79678;BME280;69145;45.544;10.214;2023-05-08T07:21:42;100343.38;;;19.71;76.23
79678;BME280;69145;45.544;10.214;2023-05-08T07:24:10;100346.56;;;19.73;76.01
79678;BME280;69145;45.544;10.214;2023-05-08T07:26:35;100349.19;;;19.73;76.53
79678;BME280;69145;45.544;10.214;2023-05-08T07:29:01;100352.03;;;19.72;75.84
79678;BME280;69145;45.544;10.214;2023-05-08T07:31:26;100346.78;;;19.72;75.86
79678;BME280;69145;45.544;10.214;2023-05-08T07:33:52;100347.81;;;19.71;76.03
79678;BME280;69145;45.544;10.214;2023-05-08T07:36:17;100343.03;;;19.68;76.60
79678;BME280;69145;45.544;10.214;2023-05-08T07:38:42;100346.22;;;19.70;76.12
79678;BME280;69145;45.544;10.214;2023-05-08T07:41:08;100335.16;;;19.68;75.88
79678;BME280;69145;45.544;10.214;2023-05-08T07:43:33;100346.78;;;19.72;75.68
79678;BME280;69145;45.544;10.214;2023-05-08T07:45:59;100348.38;;;19.73;75.60
79678;BME280;69145;45.544;10.214;2023-05-08T07:48:24;100352.84;;;19.72;75.08
79678;BME280;69145;45.544;10.214;2023-05-08T07:50:50;100359.69;;;19.73;75.08
79678;BME280;69145;45.544;10.214;2023-05-08T07:53:16;100353.63;;;19.73;75.96
79678;BME280;69145;45.544;10.214;2023-05-08T07:55:41;100363.13;;;19.74;74.82
79678;BME280;69145;45.544;10.214;2023-05-08T07:58:07;100357.88;;;19.74;74.98
79678;BME280;69145;45.544;10.214;2023-05-08T08:00:32;100366.75;;;19.73;74.25
79678;BME280;69145;45.544;10.214;2023-05-08T08:02:57;100362.31;;;19.73;74.47
79678;BME280;69145;45.544;10.214;2023-05-08T08:05:23;100366.31;;;19.76;74.82
79678;BME280;69145;45.544;10.214;2023-05-08T08:07:48;100366.56;;;19.74;74.88
79678;BME280;69145;45.544;10.214;2023-05-08T08:10:14;100363.94;;;19.74;74.77
79678;BME280;69145;45.544;10.214;2023-05-08T08:12:39;100366.19;;;19.71;74.43
79678;BME280;69145;45.544;10.214;2023-05-08T08:15:05;100369.84;;;19.70;73.94
79678;BME280;69145;45.544;10.214;2023-05-08T08:17:30;100366.75;;;19.73;74.06
79678;BME280;69145;45.544;10.214;2023-05-08T08:19:56;100367.34;;;19.75;73.81
79678;BME280;69145;45.544;10.214;2023-05-08T08:22:22;100373.38;;;19.75;73.95
79678;BME280;69145;45.544;10.214;2023-05-08T08:24:48;100367.56;;;19.73;74.18
79678;BME280;69145;45.544;10.214;2023-05-08T08:27:13;100369.53;;;19.78;74.85
79678;BME280;69145;45.544;10.214;2023-05-08T08:29:38;100367.66;;;19.78;75.14
79678;BME280;69145;45.544;10.214;2023-05-08T08:32:04;100374.78;;;19.78;73.65
79678;BME280;69145;45.544;10.214;2023-05-08T08:34:32;100365.28;;;19.77;73.64
79678;BME280;69145;45.544;10.214;2023-05-08T08:36:57;100365.84;;;19.79;73.40
79678;BME280;69145;45.544;10.214;2023-05-08T08:39:22;100365.84;;;19.79;73.67
79678;BME280;69145;45.544;10.214;2023-05-08T08:41:48;100366.66;;;19.79;75.10
79678;BME280;69145;45.544;10.214;2023-05-08T08:44:13;100361.41;;;19.79;73.35
79678;BME280;69145;45.544;10.214;2023-05-08T08:46:43;100373.50;;;19.80;73.76
79678;BME280;69145;45.544;10.214;2023-05-08T08:49:12;100370.06;;;19.80;73.49
79678;BME280;69145;45.544;10.214;2023-05-08T08:51:57;100373.72;;;19.79;73.19
79678;BME280;69145;45.544;10.214;2023-05-08T08:54:28;100373.50;;;19.80;73.46
79678;BME280;69145;45.544;10.214;2023-05-08T08:56:55;100368.25;;;19.80;73.66
79678;BME280;69145;45.544;10.214;2023-05-08T08:59:22;100372.47;;;19.81;73.97
79678;BME280;69145;45.544;10.214;2023-05-08T09:01:53;100367.22;;;19.81;73.90
79678;BME280;69145;45.544;10.214;2023-05-08T09:04:20;100370.06;;;19.80;74.14
79678;BME280;69145;45.544;10.214;2023-05-08T09:06:45;100367.00;;;19.83;74.01
79678;BME280;69145;45.544;10.214;2023-05-08T09:09:11;100365.38;;;19.82;73.31
79678;BME280;69145;45.544;10.214;2023-05-08T09:11:39;100361.97;;;19.81;73.96
79678;BME280;69145;45.544;10.214;2023-05-08T09:14:05;100369.84;;;19.81;73.99
79678;BME280;69145;45.544;10.214;2023-05-08T09:16:30;100369.84;;;19.81;73.87
79678;BME280;69145;45.544;10.214;2023-05-08T09:19:00;100364.59;;;19.81;73.85
79678;BME280;69145;45.544;10.214;2023-05-08T09:21:26;100367.22;;;19.81;73.76
79678;BME280;69145;45.544;10.214;2023-05-08T09:23:55;100368.00;;;19.82;73.90
79678;BME280;69145;45.544;10.214;2023-05-08T09:26:40;100372.25;;;19.83;73.75
79678;BME280;69145;45.544;10.214;2023-05-08T09:29:20;100367.22;;;19.81;73.87
79678;BME280;69145;45.544;10.214;2023-05-08T09:31:51;100367.44;;;19.80;73.91
79678;BME280;69145;45.544;10.214;2023-05-08T09:36:49;100368.00;;;19.82;74.31
79678;BME280;69145;45.544;10.214;2023-05-08T09:39:20;100372.25;;;19.83;74.63
79678;BME280;69145;45.544;10.214;2023-05-08T09:44:21;100371.22;;;19.84;74.68
79678;BME280;69145;45.544;10.214;2023-05-08T09:46:46;100375.66;;;19.83;74.75
79678;BME280;69145;45.544;10.214;2023-05-08T09:49:16;100382.75;;;19.83;74.57
79678;BME280;69145;45.544;10.214;2023-05-08T09:51:51;100377.50;;;19.83;74.79
79678;BME280;69145;45.544;10.214;2023-05-08T09:54:17;100383.53;;;19.83;75.34
79678;BME280;69145;45.544;10.214;2023-05-08T09:56:43;100381.72;;;19.84;75.45
79678;BME280;69145;45.544;10.214;2023-05-08T09:59:41;100377.28;;;19.84;75.05
79678;BME280;69145;45.544;10.214;2023-05-08T10:02:10;100380.91;;;19.83;75.38
79678;BME280;69145;45.544;10.214;2023-05-08T10:04:36;100380.13;;;19.83;75.27
79678;BME280;69145;45.544;10.214;2023-05-08T10:07:04;100380.91;;;19.83;75.68
79678;BME280;69145;45.544;10.214;2023-05-08T10:09:29;100391.19;;;19.85;76.53
79678;BME280;69145;45.544;10.214;2023-05-08T10:11:55;100387.78;;;19.84;76.26
79678;BME280;69145;45.544;10.214;2023-05-08T10:14:24;100391.75;;;19.87;75.89
79678;BME280;69145;45.544;10.214;2023-05-08T10:16:51;100391.75;;;19.87;75.02
79678;BME280;69145;45.544;10.214;2023-05-08T10:19:21;100400.19;;;19.89;75.97
79678;BME280;69145;45.544;10.214;2023-05-08T10:21:49;100401.25;;;19.88;75.01
79678;BME280;69145;45.544;10.214;2023-05-08T10:26:54;100399.84;;;19.85;72.88
79678;BME280;69145;45.544;10.214;2023-05-08T10:29:25;100394.84;;;19.84;72.84
79678;BME280;69145;45.544;10.214;2023-05-08T10:31:53;100393.03;;;19.84;71.67
79678;BME280;69145;45.544;10.214;2023-05-08T10:34:22;100394.84;;;19.84;72.57
79678;BME280;69145;45.544;10.214;2023-05-08T10:36:50;100393.03;;;19.84;71.88
79678;BME280;69145;45.544;10.214;2023-05-08T10:39:17;100389.34;;;19.85;71.66
79678;BME280;69145;45.544;10.214;2023-05-08T10:41:43;100376.47;;;19.84;72.36
79678;BME280;69145;45.544;10.214;2023-05-08T10:44:09;100378.06;;;19.85;72.16
79678;BME280;69145;45.544;10.214;2023-05-08T10:46:52;100378.84;;;19.85;72.09
79678;BME280;69145;45.544;10.214;2023-05-08T10:49:36;100377.28;;;19.84;72.39
79678;BME280;69145;45.544;10.214;2023-05-08T10:52:16;100371.22;;;19.84;72.27
79678;BME280;69145;45.544;10.214;2023-05-08T10:57:26;100380.47;;;19.86;72.12
79678;BME280;69145;45.544;10.214;2023-05-08T10:59:51;100377.03;;;19.86;72.41
79678;BME280;69145;45.544;10.214;2023-05-08T11:02:25;100377.28;;;19.84;72.60
79678;BME280;69145;45.544;10.214;2023-05-08T11:04:50;100381.72;;;19.84;73.20
79678;BME280;69145;45.544;10.214;2023-05-08T11:07:16;100377.50;;;19.83;72.37
79678;BME280;69145;45.544;10.214;2023-05-08T11:12:22;100369.97;;;19.86;71.93
79678;BME280;69145;45.544;10.214;2023-05-08T11:15:05;100381.47;;;19.85;72.79
79678;BME280;69145;45.544;10.214;2023-05-08T11:17:32;100380.13;;;19.83;72.50
79678;BME280;69145;45.544;10.214;2023-05-08T11:19:59;100376.47;;;19.84;72.93
79678;BME280;69145;45.544;10.214;2023-05-08T11:22:26;100372.00;;;19.84;72.63
79678;BME280;69145;45.544;10.214;2023-05-08T11:25:04;100377.84;;;19.86;72.92
79678;BME280;69145;45.544;10.214;2023-05-08T11:30:25;100370.75;;;19.87;72.53
79678;BME280;69145;45.544;10.214;2023-05-08T11:35:55;100378.63;;;19.87;72.90
79678;BME280;69145;45.544;10.214;2023-05-08T11:38:28;100372.34;;;19.88;73.40
79678;BME280;69145;45.544;10.214;2023-05-08T11:41:02;100376.81;;;19.87;72.60
79678;BME280;69145;45.544;10.214;2023-05-08T11:46:02;100377.84;;;19.86;72.85
79678;BME280;69145;45.544;10.214;2023-05-08T11:48:31;100376.22;;;19.85;72.25
79678;BME280;69145;45.544;10.214;2023-05-08T11:51:01;100379.19;;;19.89;72.80
79678;BME280;69145;45.544;10.214;2023-05-08T11:53:27;100381.25;;;19.87;73.16
79678;BME280;69145;45.544;10.214;2023-05-08T11:55:54;100382.28;;;19.86;72.77
79678;BME280;69145;45.544;10.214;2023-05-08T11:58:20;100384.09;;;19.85;73.23
79678;BME280;69145;45.544;10.214;2023-05-08T12:00:47;100377.03;;;19.86;73.10
79678;BME280;69145;45.544;10.214;2023-05-08T12:03:14;100378.63;;;19.87;73.01
79678;BME280;69145;45.544;10.214;2023-05-08T12:05:39;100387.06;;;19.89;72.91
79678;BME280;69145;45.544;10.214;2023-05-08T12:08:09;100378.41;;;19.88;73.16
79678;BME280;69145;45.544;10.214;2023-05-08T12:10:58;100374.75;;;19.89;72.94
79678;BME280;69145;45.544;10.214;2023-05-08T12:13:27;100367.91;;;19.88;73.43
79678;BME280;69145;45.544;10.214;2023-05-08T12:15:55;100365.28;;;19.88;74.31
79678;BME280;69145;45.544;10.214;2023-05-08T12:18:22;100359.47;;;19.86;74.07
79678;BME280;69145;45.544;10.214;2023-05-08T12:21:06;100363.66;;;19.87;73.91
79678;BME280;69145;45.544;10.214;2023-05-08T12:23:32;100358.06;;;19.84;73.51
79678;BME280;69145;45.544;10.214;2023-05-08T12:25:59;100365.50;;;19.87;73.92
79678;BME280;69145;45.544;10.214;2023-05-08T12:28:24;100363.09;;;19.85;73.92
79678;BME280;69145;45.544;10.214;2023-05-08T12:30:50;100353.63;;;19.84;73.75
79678;BME280;69145;45.544;10.214;2023-05-08T12:33:16;100349.41;;;19.83;74.15
79678;BME280;69145;45.544;10.214;2023-05-08T12:35:42;100360.22;;;19.87;73.82
79678;BME280;69145;45.544;10.214;2023-05-08T12:38:09;100351.81;;;19.85;74.10
79678;BME280;69145;45.544;10.214;2023-05-08T12:40:40;100352.34;;;19.87;74.04
79678;BME280;69145;45.544;10.214;2023-05-08T12:43:10;100348.72;;;19.88;74.50
79678;BME280;69145;45.544;10.214;2023-05-08T12:45:49;100347.69;;;19.89;74.61
79678;BME280;69145;45.544;10.214;2023-05-08T12:50:52;100346.78;;;19.83;74.70
79678;BME280;69145;45.544;10.214;2023-05-08T12:53:19;100345.28;;;19.87;74.20
79678;BME280;69145;45.544;10.214;2023-05-08T13:02:59;100347.69;;;19.89;74.31
79678;BME280;69145;45.544;10.214;2023-05-08T13:05:30;100335.50;;;19.83;74.34
79678;BME280;69145;45.544;10.214;2023-05-08T13:11:26;100337.97;;;19.89;73.66
79678;BME280;69145;45.544;10.214;2023-05-08T13:14:11;100325.75;;;19.83;73.38
79678;BME280;69145;45.544;10.214;2023-05-08T13:17:05;100318.13;;;19.82;74.11
79678;BME280;69145;45.544;10.214;2023-05-08T13:19:34;100323.13;;;19.83;73.97
79678;BME280;69145;45.544;10.214;2023-05-08T13:22:22;100314.47;;;19.83;74.25
79678;BME280;69145;45.544;10.214;2023-05-08T13:32:39;100313.78;;;19.87;74.14
79678;BME280;69145;45.544;10.214;2023-05-08T13:35:10;100307.19;;;19.85;73.94
79678;BME280;69145;45.544;10.214;2023-05-08T13:37:44;100301.13;;;19.84;73.84
79678;BME280;69145;45.544;10.214;2023-05-08T13:40:29;100307.72;;;19.87;75.18
79678;BME280;69145;45.544;10.214;2023-05-08T13:43:04;100307.84;;;19.92;74.95
79678;BME280;69145;45.544;10.214;2023-05-08T14:15:05;100279.41;;;19.89;74.20
79678;BME280;69145;45.544;10.214;2023-05-08T14:17:33;100276.53;;;19.90;74.18
79678;BME280;69145;45.544;10.214;2023-05-08T14:19:59;100272.66;;;19.93;75.42